createdAt,value
2023-03-30T00:00:52.479Z,0.00
2023-03-30T00:01:52.339Z,0.00
2023-03-30T00:02:52.479Z,0.00
2023-03-30T00:03:52.379Z,0.00
2023-03-30T00:04:52.375Z,0.00
2023-03-30T00:05:52.259Z,0.00
2023-03-30T00:06:52.207Z,0.00
2023-03-30T00:07:52.180Z,0.00
2023-03-30T00:08:52.149Z,0.00
2023-03-30T00:09:52.108Z,0.00
2023-03-30T00:10:52.096Z,0.00
2023-03-30T00:11:52.107Z,0.00
2023-03-30T00:12:52.028Z,0.00
2023-03-30T00:13:52.010Z,0.00
2023-03-30T00:14:51.972Z,0.00
2023-03-30T00:15:51.929Z,0.00
2023-03-30T00:16:52.042Z,0.00
2023-03-30T00:17:51.880Z,0.00
2023-03-30T00:18:51.852Z,0.00
2023-03-30T00:19:51.843Z,0.00
2023-03-30T00:20:51.892Z,0.00
2023-03-30T00:21:51.754Z,0.00
2023-03-30T00:22:51.747Z,0.00
2023-03-30T00:23:51.693Z,0.00
2023-03-30T00:24:51.671Z,0.00
2023-03-30T00:25:51.671Z,0.00
2023-03-30T00:26:51.621Z,0.00
2023-03-30T00:27:51.593Z,0.00
2023-03-30T00:28:51.565Z,0.00
2023-03-30T00:29:51.520Z,0.00
2023-03-30T00:30:51.510Z,0.00
2023-03-30T00:31:51.504Z,0.00
2023-03-30T00:32:51.468Z,0.00
2023-03-30T00:33:51.405Z,0.00
2023-03-30T00:34:51.402Z,0.00
2023-03-30T00:35:51.480Z,0.00
2023-03-30T00:36:51.341Z,0.00
2023-03-30T00:37:51.285Z,0.00
2023-03-30T00:38:51.259Z,0.00
2023-03-30T00:39:51.254Z,0.00
2023-03-30T00:40:51.211Z,0.00
2023-03-30T00:41:51.169Z,0.00
2023-03-30T00:42:51.156Z,0.00
2023-03-30T00:43:51.111Z,0.00
2023-03-30T00:44:51.088Z,0.00
2023-03-30T00:45:51.107Z,0.00
2023-03-30T00:46:51.021Z,0.00
2023-03-30T00:47:51.041Z,0.00
2023-03-30T00:48:50.978Z,0.00
2023-03-30T00:49:50.919Z,0.00
2023-03-30T00:50:50.914Z,0.00
2023-03-30T00:51:50.871Z,0.00
2023-03-30T00:52:50.837Z,0.00
2023-03-30T00:53:50.822Z,0.00
2023-03-30T00:54:50.796Z,0.00
2023-03-30T00:55:50.744Z,0.00
2023-03-30T00:56:50.766Z,0.00
2023-03-30T00:57:50.703Z,0.00
2023-03-30T00:58:50.671Z,0.00
2023-03-30T00:59:50.652Z,0.00
2023-03-30T01:00:50.616Z,0.00
2023-03-30T01:01:50.695Z,0.00
2023-03-30T01:02:50.728Z,0.00
2023-03-30T01:03:50.741Z,0.00
2023-03-30T01:04:50.503Z,0.00
2023-03-30T01:05:50.459Z,0.00
2023-03-30T01:06:50.436Z,0.00
2023-03-30T01:07:50.415Z,0.00
2023-03-30T01:08:50.396Z,0.00
2023-03-30T01:09:50.338Z,0.00
2023-03-30T01:10:50.349Z,0.00
2023-03-30T01:11:50.281Z,0.00
2023-03-30T01:12:50.261Z,0.00
2023-03-30T01:13:50.241Z,0.00
2023-03-30T01:14:50.203Z,0.00
2023-03-30T01:15:50.209Z,0.00
2023-03-30T01:16:50.170Z,0.00
2023-03-30T01:17:50.180Z,0.00
2023-03-30T01:18:50.086Z,0.00
2023-03-30T01:19:50.048Z,0.00
2023-03-30T01:20:50.029Z,0.00
2023-03-30T01:21:49.988Z,0.00
2023-03-30T01:22:49.993Z,0.00
2023-03-30T01:23:49.925Z,0.00
2023-03-30T01:24:49.915Z,0.00
2023-03-30T01:25:49.875Z,0.00
2023-03-30T01:26:49.846Z,0.00
2023-03-30T01:27:49.834Z,0.00
2023-03-30T01:28:49.781Z,0.00
2023-03-30T01:29:49.755Z,0.00
2023-03-30T01:30:49.844Z,0.00
2023-03-30T01:31:49.789Z,0.00
2023-03-30T01:32:49.697Z,0.00
2023-03-30T01:33:49.659Z,0.00
2023-03-30T01:34:49.653Z,0.00
2023-03-30T01:35:49.674Z,0.00
2023-03-30T01:36:49.572Z,0.00
2023-03-30T01:37:49.515Z,0.00
2023-03-30T01:38:49.500Z,0.00
2023-03-30T01:39:49.446Z,0.00
2023-03-30T01:40:49.427Z,0.00
2023-03-30T01:41:49.407Z,0.00
2023-03-30T01:42:49.382Z,0.00
2023-03-30T01:43:49.326Z,0.00
2023-03-30T01:44:49.330Z,0.00
2023-03-30T01:45:49.277Z,0.00
2023-03-30T01:46:49.327Z,0.00
2023-03-30T01:47:49.299Z,0.00
2023-03-30T01:48:49.238Z,0.00
2023-03-30T01:49:49.160Z,0.00
2023-03-30T01:50:49.154Z,0.00
2023-03-30T01:51:49.094Z,0.00
2023-03-30T01:52:50.407Z,0.00
2023-03-30T01:53:49.039Z,0.00
2023-03-30T01:54:49.020Z,0.00
2023-03-30T01:55:49.011Z,0.00
2023-03-30T01:56:48.993Z,0.00
2023-03-30T01:57:48.911Z,0.00
2023-03-30T01:58:48.923Z,0.00
2023-03-30T01:59:48.858Z,0.00
2023-03-30T02:00:48.827Z,0.00
2023-03-30T02:01:48.872Z,0.00
2023-03-30T02:02:48.904Z,0.00
2023-03-30T02:03:48.787Z,0.00
2023-03-30T02:04:48.738Z,0.00
2023-03-30T02:05:48.674Z,0.00
2023-03-30T02:06:48.665Z,0.00
2023-03-30T02:07:48.645Z,0.00
2023-03-30T02:08:48.580Z,0.00
2023-03-30T02:09:48.588Z,0.00
2023-03-30T02:10:48.528Z,0.00
2023-03-30T02:11:48.498Z,0.00
2023-03-30T02:12:48.494Z,0.00
2023-03-30T02:13:48.435Z,0.00
2023-03-30T02:14:48.403Z,0.00
2023-03-30T02:15:48.407Z,0.00
2023-03-30T02:16:48.428Z,0.00
2023-03-30T02:17:48.450Z,0.00
2023-03-30T02:18:48.317Z,0.00
2023-03-30T02:19:48.260Z,0.00
2023-03-30T02:20:48.224Z,0.00
2023-03-30T02:21:48.231Z,0.00
2023-03-30T02:22:48.168Z,0.00
2023-03-30T02:23:48.158Z,0.00
2023-03-30T02:24:48.109Z,0.00
2023-03-30T02:25:48.157Z,0.00
2023-03-30T02:26:48.088Z,0.00
2023-03-30T02:27:48.033Z,0.00
2023-03-30T02:28:47.992Z,0.00
2023-03-30T02:29:48.037Z,0.00
2023-03-30T02:30:47.950Z,0.00
2023-03-30T02:31:47.951Z,0.00
2023-03-30T02:32:47.901Z,0.00
2023-03-30T02:33:47.841Z,0.00
2023-03-30T02:34:47.826Z,0.00
2023-03-30T02:35:47.823Z,0.00
2023-03-30T02:36:47.747Z,0.00
2023-03-30T02:37:47.759Z,0.00
2023-03-30T02:38:47.689Z,0.00
2023-03-30T02:39:47.662Z,0.00
2023-03-30T02:40:47.647Z,0.00
2023-03-30T02:41:47.603Z,0.00
2023-03-30T02:42:47.565Z,0.00
2023-03-30T02:43:47.582Z,0.00
2023-03-30T02:44:47.523Z,0.00
2023-03-30T02:45:47.536Z,0.00
2023-03-30T02:46:47.470Z,0.00
2023-03-30T02:47:47.478Z,0.00
2023-03-30T02:48:47.405Z,0.00
2023-03-30T02:49:47.387Z,0.00
2023-03-30T02:50:47.351Z,0.00
2023-03-30T02:51:47.314Z,0.00
2023-03-30T02:52:47.269Z,0.00
2023-03-30T02:53:47.253Z,0.00
2023-03-30T02:54:47.232Z,0.00
2023-03-30T02:55:47.187Z,0.00
2023-03-30T02:56:47.182Z,0.00
2023-03-30T02:57:47.145Z,0.00
2023-03-30T02:58:47.106Z,0.00
2023-03-30T02:59:47.062Z,0.00
2023-03-30T03:00:47.043Z,0.00
2023-03-30T03:01:47.017Z,0.00
2023-03-30T03:02:47.115Z,0.00
2023-03-30T03:03:47.045Z,0.00
2023-03-30T03:04:46.908Z,0.00
2023-03-30T03:05:46.884Z,0.00
2023-03-30T03:06:46.853Z,0.00
2023-03-30T03:07:46.814Z,0.00
2023-03-30T03:08:46.813Z,0.00
2023-03-30T03:09:46.764Z,0.00
2023-03-30T03:10:46.725Z,0.00
2023-03-30T03:11:46.725Z,0.00
2023-03-30T03:12:46.659Z,0.00
2023-03-30T03:13:46.657Z,0.00
2023-03-30T03:14:46.656Z,0.00
2023-03-30T03:15:46.589Z,0.00
2023-03-30T03:16:46.624Z,0.00
2023-03-30T03:17:46.576Z,0.00
2023-03-30T03:18:46.489Z,0.00
2023-03-30T03:19:46.473Z,0.00
2023-03-30T03:20:46.430Z,0.00
2023-03-30T03:21:46.396Z,0.00
2023-03-30T03:22:46.415Z,0.00
2023-03-30T03:23:46.382Z,4.00
2023-03-30T03:24:46.321Z,4.00
2023-03-30T03:25:46.313Z,4.00
2023-03-30T03:26:46.243Z,0.00
2023-03-30T03:27:46.238Z,0.00
2023-03-30T03:28:47.886Z,4.00
2023-03-30T03:29:46.157Z,4.00
2023-03-30T03:30:46.150Z,0.00
2023-03-30T03:31:46.128Z,4.00
2023-03-30T03:32:46.098Z,4.00
2023-03-30T03:33:46.069Z,4.00
2023-03-30T03:34:46.037Z,8.00
2023-03-30T03:35:46.040Z,4.00
2023-03-30T03:36:45.950Z,8.00
2023-03-30T03:37:45.968Z,8.00
2023-03-30T03:38:45.904Z,8.00
2023-03-30T03:39:45.882Z,12.00
2023-03-30T03:40:45.819Z,12.00
2023-03-30T03:41:45.804Z,12.00
2023-03-30T03:42:45.827Z,16.00
2023-03-30T03:43:45.733Z,16.00
2023-03-30T03:44:45.716Z,16.00
2023-03-30T03:45:45.706Z,16.00
2023-03-30T03:46:45.670Z,20.00
2023-03-30T03:47:45.676Z,20.00
2023-03-30T03:48:45.582Z,24.00
2023-03-30T03:49:45.558Z,28.00
2023-03-30T03:50:45.550Z,28.00
2023-03-30T03:51:45.517Z,32.00
2023-03-30T03:52:45.470Z,36.00
2023-03-30T03:53:45.461Z,36.00
2023-03-30T03:54:45.409Z,44.00
2023-03-30T03:55:45.477Z,48.00
2023-03-30T03:56:45.407Z,48.00
2023-03-30T03:57:45.322Z,52.00
2023-03-30T03:58:45.294Z,60.00
2023-03-30T03:59:45.264Z,64.00
2023-03-30T04:00:45.250Z,64.00
2023-03-30T04:01:45.259Z,72.00
2023-03-30T04:02:45.256Z,76.00
2023-03-30T04:03:45.138Z,80.00
2023-03-30T04:04:45.127Z,88.00
2023-03-30T04:05:45.112Z,92.00
2023-03-30T04:06:45.054Z,96.00
2023-03-30T04:07:45.032Z,104.00
2023-03-30T04:08:44.982Z,112.00
2023-03-30T04:09:44.961Z,116.00
2023-03-30T04:10:44.985Z,120.00
2023-03-30T04:11:44.896Z,128.00
2023-03-30T04:12:44.871Z,132.00
2023-03-30T04:13:44.846Z,144.00
2023-03-30T04:14:44.796Z,148.00
2023-03-30T04:15:44.793Z,152.00
2023-03-30T04:16:44.781Z,164.00
2023-03-30T04:17:47.297Z,168.00
2023-03-30T04:18:44.702Z,176.00
2023-03-30T04:19:44.686Z,184.00
2023-03-30T04:20:44.633Z,196.00
2023-03-30T04:21:44.628Z,200.00
2023-03-30T04:22:44.635Z,208.00
2023-03-30T04:23:44.539Z,220.00
2023-03-30T04:24:44.494Z,224.00
2023-03-30T04:25:44.478Z,236.00
2023-03-30T04:26:44.453Z,244.00
2023-03-30T04:27:44.432Z,252.00
2023-03-30T04:28:44.388Z,260.00
2023-03-30T04:29:44.383Z,268.00
2023-03-30T04:30:44.330Z,280.00
2023-03-30T04:31:44.326Z,284.00
2023-03-30T04:32:44.335Z,296.00
2023-03-30T04:33:46.458Z,300.00
2023-03-30T04:34:44.215Z,308.00
2023-03-30T04:35:44.193Z,320.00
2023-03-30T04:36:44.134Z,328.00
2023-03-30T04:37:44.130Z,336.00
2023-03-30T04:38:44.082Z,344.00
2023-03-30T04:39:44.063Z,352.00
2023-03-30T04:40:44.066Z,356.00
2023-03-30T04:41:44.028Z,364.00
2023-03-30T04:42:43.960Z,372.00
2023-03-30T04:43:43.949Z,376.00
2023-03-30T04:44:43.985Z,384.00
2023-03-30T04:45:43.895Z,388.00
2023-03-30T04:46:43.867Z,396.00
2023-03-30T04:47:43.841Z,400.00
2023-03-30T04:48:43.797Z,408.00
2023-03-30T04:49:43.795Z,412.00
2023-03-30T04:50:43.719Z,420.00
2023-03-30T04:51:43.697Z,424.00
2023-03-30T04:52:43.656Z,432.00
2023-03-30T04:53:43.632Z,440.00
2023-03-30T04:54:43.624Z,444.00
2023-03-30T04:55:43.614Z,448.00
2023-03-30T04:56:43.566Z,456.00
2023-03-30T04:57:43.533Z,464.00
2023-03-30T04:58:43.472Z,468.00
2023-03-30T04:59:43.459Z,472.00
2023-03-30T05:00:43.445Z,480.00
2023-03-30T05:01:43.436Z,488.00
2023-03-30T05:02:43.495Z,492.00
2023-03-30T05:03:43.403Z,500.00
2023-03-30T05:04:43.296Z,504.00
2023-03-30T05:05:43.280Z,512.00
2023-03-30T05:06:43.236Z,520.00
2023-03-30T05:07:43.207Z,524.00
2023-03-30T05:08:43.224Z,528.00
2023-03-30T05:09:43.219Z,536.00
2023-03-30T05:10:43.121Z,540.00
2023-03-30T05:11:43.107Z,544.00
2023-03-30T05:12:43.052Z,552.00
2023-03-30T05:13:43.038Z,552.00
2023-03-30T05:14:42.996Z,560.00
2023-03-30T05:15:42.976Z,568.00
2023-03-30T05:16:43.096Z,572.00
2023-03-30T05:17:42.957Z,580.00
2023-03-30T05:18:42.867Z,584.00
2023-03-30T05:19:42.862Z,584.00
2023-03-30T05:20:42.837Z,584.00
2023-03-30T05:21:42.792Z,592.00
2023-03-30T05:22:42.794Z,600.00
2023-03-30T05:23:42.722Z,604.00
2023-03-30T05:24:42.696Z,608.00
2023-03-30T05:25:42.728Z,612.00
2023-03-30T05:26:42.628Z,620.00
2023-03-30T05:27:42.598Z,624.00
2023-03-30T05:28:42.564Z,632.00
2023-03-30T05:29:42.553Z,636.00
2023-03-30T05:30:42.518Z,640.00
2023-03-30T05:31:42.572Z,644.00
2023-03-30T05:32:42.475Z,648.00
2023-03-30T05:33:43.919Z,656.00
2023-03-30T05:34:42.392Z,648.00
2023-03-30T05:35:42.381Z,668.00
2023-03-30T05:36:42.384Z,676.00
2023-03-30T05:37:42.303Z,680.00
2023-03-30T05:38:42.283Z,684.00
2023-03-30T05:39:42.253Z,688.00
2023-03-30T05:40:42.317Z,696.00
2023-03-30T05:41:42.196Z,700.00
2023-03-30T05:42:42.144Z,708.00
2023-03-30T05:43:42.118Z,708.00
2023-03-30T05:44:42.098Z,712.00
2023-03-30T05:45:42.064Z,716.00
2023-03-30T05:46:42.114Z,720.00
2023-03-30T05:47:42.045Z,724.00
2023-03-30T05:48:41.976Z,728.00
2023-03-30T05:49:41.939Z,732.00
2023-03-30T05:50:41.929Z,736.00
2023-03-30T05:51:41.874Z,740.00
2023-03-30T05:52:41.860Z,744.00
2023-03-30T05:53:41.815Z,748.00
2023-03-30T05:54:41.786Z,756.00
2023-03-30T05:55:41.760Z,768.00
2023-03-30T05:56:41.757Z,800.00
2023-03-30T05:57:41.692Z,876.00
2023-03-30T05:58:41.667Z,996.00
2023-03-30T05:59:41.632Z,1140.00
2023-03-30T06:00:41.609Z,1276.00
2023-03-30T06:01:41.596Z,1400.00
2023-03-30T06:02:41.628Z,1508.00
2023-03-30T06:03:41.609Z,1604.00
2023-03-30T06:04:41.524Z,1692.00
2023-03-30T06:05:41.451Z,1776.00
2023-03-30T06:06:41.423Z,1856.00
2023-03-30T06:07:41.401Z,1924.00
2023-03-30T06:08:41.357Z,1992.00
2023-03-30T06:09:41.340Z,2068.00
2023-03-30T06:10:41.597Z,2144.00
2023-03-30T06:11:41.287Z,2220.00
2023-03-30T06:12:41.250Z,2288.00
2023-03-30T06:13:41.215Z,2356.00
2023-03-30T06:14:41.186Z,2404.00
2023-03-30T06:15:41.179Z,2452.00
2023-03-30T06:16:41.177Z,2496.00
2023-03-30T06:17:41.149Z,2544.00
2023-03-30T06:18:41.084Z,2584.00
2023-03-30T06:19:41.044Z,2624.00
2023-03-30T06:20:41.100Z,2680.00
2023-03-30T06:21:41.107Z,2756.00
2023-03-30T06:22:40.950Z,2832.00
2023-03-30T06:23:40.949Z,2912.00
2023-03-30T06:24:40.918Z,2984.00
2023-03-30T06:25:40.860Z,3048.00
2023-03-30T06:26:40.835Z,3120.00
2023-03-30T06:27:43.432Z,3184.00
2023-03-30T06:28:40.775Z,3240.00
2023-03-30T06:29:40.768Z,3296.00
2023-03-30T06:30:40.720Z,3344.00
2023-03-30T06:31:40.742Z,3380.00
2023-03-30T06:32:40.741Z,3432.00
2023-03-30T06:33:41.996Z,3476.00
2023-03-30T06:34:40.624Z,3524.00
2023-03-30T06:35:40.627Z,3548.00
2023-03-30T06:36:44.634Z,3576.00
2023-03-30T06:37:40.519Z,3604.00
2023-03-30T06:38:40.496Z,3628.00
2023-03-30T06:39:40.532Z,3636.00
2023-03-30T06:40:40.439Z,3672.00
2023-03-30T06:41:40.415Z,3588.00
2023-03-30T06:42:40.451Z,3640.00
2023-03-30T06:43:40.370Z,3752.00
2023-03-30T06:44:40.353Z,3796.00
2023-03-30T06:45:40.300Z,3836.00
2023-03-30T06:46:40.282Z,3868.00
2023-03-30T06:47:40.328Z,3888.00
2023-03-30T06:48:40.206Z,3912.00
2023-03-30T06:49:40.187Z,3924.00
2023-03-30T06:50:40.197Z,3944.00
2023-03-30T06:51:40.122Z,3952.00
2023-03-30T06:52:40.098Z,3968.00
2023-03-30T06:53:40.267Z,3988.00
2023-03-30T06:54:40.057Z,4008.00
2023-03-30T06:55:40.041Z,4016.00
2023-03-30T06:56:40.128Z,4028.00
2023-03-30T06:57:39.950Z,4040.00
2023-03-30T06:58:39.941Z,4048.00
2023-03-30T06:59:39.901Z,4068.00
2023-03-30T07:00:39.878Z,4088.00
2023-03-30T07:01:39.914Z,4092.00
2023-03-30T07:02:39.884Z,4108.00
2023-03-30T07:03:39.782Z,4128.00
2023-03-30T07:04:39.848Z,4144.00
2023-03-30T07:05:39.756Z,4152.00
2023-03-30T07:06:40.046Z,4168.00
2023-03-30T07:07:39.696Z,4184.00
2023-03-30T07:08:39.680Z,4208.00
2023-03-30T07:09:39.632Z,4240.00
2023-03-30T07:10:39.608Z,4260.00
2023-03-30T07:11:39.616Z,4288.00
2023-03-30T07:12:39.558Z,4312.00
2023-03-30T07:13:39.531Z,4336.00
2023-03-30T07:14:39.511Z,4368.00
2023-03-30T07:15:39.457Z,4396.00
2023-03-30T07:16:39.546Z,4428.00
2023-03-30T07:17:39.473Z,4460.00
2023-03-30T07:18:39.406Z,4500.00
2023-03-30T07:19:39.458Z,4544.00
2023-03-30T07:20:39.374Z,4576.00
2023-03-30T07:21:39.339Z,4608.00
2023-03-30T07:22:39.289Z,4632.00
2023-03-30T07:23:39.296Z,4660.00
2023-03-30T07:24:39.279Z,4676.00
2023-03-30T07:25:39.225Z,4708.00
2023-03-30T07:26:39.183Z,4744.00
2023-03-30T07:27:39.149Z,4768.00
2023-03-30T07:28:39.146Z,4788.00
2023-03-30T07:29:39.118Z,4788.00
2023-03-30T07:30:39.226Z,4800.00
2023-03-30T07:31:39.112Z,4808.00
2023-03-30T07:32:39.132Z,4796.00
2023-03-30T07:33:39.053Z,4796.00
2023-03-30T07:34:38.971Z,4792.00
2023-03-30T07:35:38.980Z,4788.00
2023-03-30T07:36:38.940Z,4780.00
2023-03-30T07:37:38.916Z,4788.00
2023-03-30T07:38:38.885Z,4796.00
2023-03-30T07:39:38.869Z,4808.00
2023-03-30T07:40:38.888Z,4820.00
2023-03-30T07:41:38.785Z,4824.00
2023-03-30T07:42:38.806Z,4816.00
2023-03-30T07:43:38.729Z,4828.00
2023-03-30T07:44:38.704Z,4824.00
2023-03-30T07:45:38.733Z,4824.00
2023-03-30T07:46:38.790Z,4832.00
2023-03-30T07:47:38.644Z,4848.00
2023-03-30T07:48:38.665Z,4864.00
2023-03-30T07:49:38.661Z,4868.00
2023-03-30T07:50:38.557Z,4880.00
2023-03-30T07:51:38.569Z,4880.00
2023-03-30T07:52:38.503Z,4892.00
2023-03-30T07:53:38.482Z,4892.00
2023-03-30T07:54:38.469Z,4888.00
2023-03-30T07:55:38.410Z,4896.00
2023-03-30T07:56:38.386Z,4900.00
2023-03-30T07:57:38.370Z,4904.00
2023-03-30T07:58:38.335Z,4908.00
2023-03-30T07:59:38.309Z,4916.00
2023-03-30T08:00:38.303Z,4916.00
2023-03-30T08:01:38.250Z,4916.00
2023-03-30T08:02:38.291Z,4928.00
2023-03-30T08:03:38.403Z,4936.00
2023-03-30T08:04:38.334Z,4944.00
2023-03-30T08:05:38.152Z,4956.00
2023-03-30T08:06:38.137Z,4864.00
2023-03-30T08:07:38.109Z,4924.00
2023-03-30T08:08:38.169Z,4920.00
2023-03-30T08:09:38.048Z,4928.00
2023-03-30T08:10:38.077Z,4940.00
2023-03-30T08:11:38.010Z,4940.00
2023-03-30T08:12:37.974Z,4940.00
2023-03-30T08:13:37.976Z,4952.00
2023-03-30T08:14:37.932Z,4952.00
2023-03-30T08:15:37.891Z,4956.00
2023-03-30T08:16:37.958Z,4956.00
2023-03-30T08:17:37.885Z,4948.00
2023-03-30T08:18:37.829Z,4944.00
2023-03-30T08:19:37.817Z,4940.00
2023-03-30T08:20:37.793Z,4940.00
2023-03-30T08:21:37.750Z,4964.00
2023-03-30T08:22:37.749Z,4972.00
2023-03-30T08:23:37.765Z,4980.00
2023-03-30T08:24:37.664Z,4988.00
2023-03-30T08:25:37.749Z,4972.00
2023-03-30T08:26:37.696Z,4976.00
2023-03-30T08:27:37.617Z,4980.00
2023-03-30T08:28:37.588Z,4992.00
2023-03-30T08:29:37.577Z,4984.00
2023-03-30T08:30:37.527Z,4976.00
2023-03-30T08:31:37.583Z,4980.00
2023-03-30T08:32:37.506Z,4976.00
2023-03-30T08:33:37.442Z,4976.00
2023-03-30T08:34:37.508Z,4980.00
2023-03-30T08:35:37.429Z,4972.00
2023-03-30T08:36:37.376Z,4972.00
2023-03-30T08:37:37.334Z,4976.00
2023-03-30T08:38:37.319Z,4968.00
2023-03-30T08:39:37.340Z,4972.00
2023-03-30T08:40:37.262Z,4964.00
2023-03-30T08:41:37.253Z,4972.00
2023-03-30T08:42:37.252Z,4984.00
2023-03-30T08:43:37.180Z,4948.00
2023-03-30T08:44:37.168Z,4364.00
2023-03-30T08:45:38.186Z,5028.00
2023-03-30T08:46:37.115Z,5088.00
2023-03-30T08:47:37.199Z,4344.00
2023-03-30T08:48:37.067Z,4512.00
2023-03-30T08:49:37.029Z,4952.00
2023-03-30T08:50:37.010Z,4900.00
2023-03-30T08:51:37.019Z,4928.00
2023-03-30T08:52:36.992Z,4952.00
2023-03-30T08:53:36.950Z,4948.00
2023-03-30T08:54:36.912Z,4980.00
2023-03-30T08:55:36.923Z,4252.00
2023-03-30T08:56:36.942Z,4968.00
2023-03-30T08:57:36.831Z,4952.00
2023-03-30T08:58:36.851Z,4956.00
2023-03-30T08:59:36.782Z,4984.00
2023-03-30T09:00:36.778Z,5012.00
2023-03-30T09:01:36.852Z,5060.00
2023-03-30T09:02:38.113Z,5028.00
2023-03-30T09:03:36.682Z,5008.00
2023-03-30T09:04:36.684Z,4948.00
2023-03-30T09:05:36.683Z,4936.00
2023-03-30T09:06:36.633Z,4948.00
2023-03-30T09:07:36.591Z,4932.00
2023-03-30T09:08:36.585Z,4920.00
2023-03-30T09:09:36.535Z,4920.00
2023-03-30T09:10:36.518Z,4896.00
2023-03-30T09:11:36.517Z,4868.00
2023-03-30T09:12:36.469Z,4836.00
2023-03-30T09:13:36.434Z,4848.00
2023-03-30T09:14:36.469Z,4864.00
2023-03-30T09:15:36.425Z,4872.00
2023-03-30T09:16:36.404Z,4860.00
2023-03-30T09:17:36.373Z,6552.00
2023-03-30T09:18:36.357Z,7248.00
2023-03-30T09:19:36.305Z,5420.00
2023-03-30T09:20:36.290Z,4848.00
2023-03-30T09:21:36.267Z,4856.00
2023-03-30T09:22:36.224Z,4860.00
2023-03-30T09:23:36.246Z,4860.00
2023-03-30T09:24:36.196Z,4876.00
2023-03-30T09:25:36.189Z,4876.00
2023-03-30T09:26:36.188Z,4908.00
2023-03-30T09:27:36.110Z,4152.00
2023-03-30T09:28:36.133Z,4112.00
2023-03-30T09:29:36.057Z,4280.00
2023-03-30T09:30:36.050Z,4308.00
2023-03-30T09:31:36.052Z,4580.00
2023-03-30T09:32:36.071Z,4760.00
2023-03-30T09:33:35.971Z,4748.00
2023-03-30T09:34:35.961Z,4232.00
2023-03-30T09:35:35.954Z,3856.00
2023-03-30T09:36:35.933Z,4600.00
2023-03-30T09:37:35.880Z,4720.00
2023-03-30T09:38:35.871Z,4608.00
2023-03-30T09:39:35.830Z,3932.00
2023-03-30T09:40:35.800Z,3532.00
2023-03-30T09:41:35.811Z,3408.00
2023-03-30T09:42:35.811Z,4228.00
2023-03-30T09:43:35.723Z,3916.00
2023-03-30T09:44:35.716Z,4124.00
2023-03-30T09:45:35.708Z,4204.00
2023-03-30T09:46:35.739Z,4348.00
2023-03-30T09:47:35.726Z,4408.00
2023-03-30T09:48:35.624Z,4476.00
2023-03-30T09:49:35.589Z,4484.00
2023-03-30T09:50:35.560Z,4492.00
2023-03-30T09:51:35.543Z,4496.00
2023-03-30T09:52:35.543Z,4492.00
2023-03-30T09:53:35.486Z,4484.00
2023-03-30T09:54:35.466Z,4480.00
2023-03-30T09:55:35.462Z,4464.00
2023-03-30T09:56:35.452Z,4468.00
2023-03-30T09:57:35.485Z,4484.00
2023-03-30T09:58:35.439Z,4500.00
2023-03-30T09:59:35.379Z,4496.00
2023-03-30T10:00:35.335Z,4484.00
2023-03-30T10:01:35.359Z,4468.00
2023-03-30T10:02:35.368Z,4460.00
2023-03-30T10:03:35.385Z,4452.00
2023-03-30T10:04:35.287Z,4448.00
2023-03-30T10:05:35.232Z,4436.00
2023-03-30T10:06:35.189Z,4428.00
2023-03-30T10:07:35.158Z,4432.00
2023-03-30T10:08:35.146Z,4428.00
2023-03-30T10:09:35.131Z,4408.00
2023-03-30T10:10:35.085Z,4384.00
2023-03-30T10:11:35.066Z,4372.00
2023-03-30T10:12:35.071Z,4364.00
2023-03-30T10:13:35.011Z,4360.00
2023-03-30T10:14:35.023Z,4352.00
2023-03-30T10:15:35.030Z,4328.00
2023-03-30T10:16:35.023Z,4296.00
2023-03-30T10:17:35.020Z,4288.00
2023-03-30T10:18:34.972Z,4312.00
2023-03-30T10:19:37.542Z,4320.00
2023-03-30T10:20:34.864Z,4316.00
2023-03-30T10:21:34.831Z,4308.00
2023-03-30T10:22:34.843Z,4296.00
2023-03-30T10:23:34.786Z,4284.00
2023-03-30T10:24:34.770Z,4280.00
2023-03-30T10:25:34.748Z,4268.00
2023-03-30T10:26:34.773Z,4260.00
2023-03-30T10:27:34.785Z,4264.00
2023-03-30T10:28:34.764Z,4260.00
2023-03-30T10:29:34.672Z,4252.00
2023-03-30T10:30:34.621Z,4244.00
2023-03-30T10:31:34.664Z,4228.00
2023-03-30T10:32:34.610Z,4196.00
2023-03-30T10:33:34.546Z,4212.00
2023-03-30T10:34:34.533Z,4272.00
2023-03-30T10:35:34.551Z,4332.00
2023-03-30T10:36:34.507Z,4384.00
2023-03-30T10:37:34.462Z,4372.00
2023-03-30T10:38:34.433Z,4312.00
2023-03-30T10:39:34.427Z,4392.00
2023-03-30T10:40:34.383Z,4396.00
2023-03-30T10:41:34.388Z,4444.00
2023-03-30T10:42:34.367Z,4452.00
2023-03-30T10:43:34.347Z,4344.00
2023-03-30T10:44:34.322Z,4448.00
2023-03-30T10:45:34.292Z,4432.00
2023-03-30T10:46:34.306Z,4452.00
2023-03-30T10:47:34.254Z,4320.00
2023-03-30T10:48:34.199Z,4136.00
2023-03-30T10:49:34.174Z,4116.00
2023-03-30T10:50:34.186Z,4380.00
2023-03-30T10:51:34.130Z,4372.00
2023-03-30T10:52:34.106Z,4376.00
2023-03-30T10:53:34.137Z,4384.00
2023-03-30T10:54:34.074Z,4392.00
2023-03-30T10:55:34.038Z,4200.00
2023-03-30T10:56:34.020Z,4080.00
2023-03-30T10:57:34.034Z,3888.00
2023-03-30T10:58:34.025Z,3600.00
2023-03-30T10:59:33.975Z,3488.00
2023-03-30T11:00:33.939Z,4404.00
2023-03-30T11:01:33.984Z,3580.00
2023-03-30T11:02:33.913Z,4552.00
2023-03-30T11:03:34.039Z,2948.00
2023-03-30T11:04:34.142Z,3692.00
2023-03-30T11:05:33.798Z,1736.00
2023-03-30T11:06:33.792Z,2116.00
2023-03-30T11:07:33.752Z,1656.00
2023-03-30T11:08:33.753Z,1672.00
2023-03-30T11:09:33.719Z,1888.00
2023-03-30T11:10:33.711Z,3616.00
2023-03-30T11:11:33.664Z,2624.00
2023-03-30T11:12:33.643Z,3560.00
2023-03-30T11:13:33.626Z,2012.00
2023-03-30T11:14:33.582Z,1704.00
2023-03-30T11:15:33.582Z,4264.00
2023-03-30T11:16:33.614Z,4284.00
2023-03-30T11:17:33.572Z,4132.00
2023-03-30T11:18:33.486Z,3400.00
2023-03-30T11:19:33.472Z,4080.00
2023-03-30T11:20:33.475Z,3648.00
2023-03-30T11:21:33.426Z,3092.00
2023-03-30T11:22:33.663Z,3888.00
2023-03-30T11:23:33.381Z,3900.00
2023-03-30T11:24:33.336Z,3876.00
2023-03-30T11:25:33.334Z,3868.00
2023-03-30T11:26:33.317Z,3792.00
2023-03-30T11:27:33.302Z,3848.00
2023-03-30T11:28:33.250Z,3812.00
2023-03-30T11:29:33.229Z,3872.00
2023-03-30T11:30:33.221Z,3908.00
2023-03-30T11:31:33.210Z,3948.00
2023-03-30T11:32:33.227Z,3980.00
2023-03-30T11:33:33.140Z,3952.00
2023-03-30T11:34:33.134Z,3908.00
2023-03-30T11:35:33.118Z,3924.00
2023-03-30T11:36:33.067Z,3892.00
2023-03-30T11:37:33.062Z,3876.00
2023-03-30T11:38:33.056Z,3904.00
2023-03-30T11:39:33.236Z,3896.00
2023-03-30T11:40:33.020Z,3764.00
2023-03-30T11:41:32.976Z,3848.00
2023-03-30T11:42:32.930Z,3676.00
2023-03-30T11:43:32.903Z,3096.00
2023-03-30T11:44:32.897Z,3716.00
2023-03-30T11:45:32.897Z,3672.00
2023-03-30T11:46:32.835Z,3648.00
2023-03-30T11:47:32.869Z,3628.00
2023-03-30T11:48:32.778Z,3596.00
2023-03-30T11:49:32.753Z,3576.00
2023-03-30T11:50:32.737Z,1884.00
2023-03-30T11:51:32.747Z,1476.00
2023-03-30T11:52:32.680Z,3268.00
2023-03-30T11:53:32.666Z,1436.00
2023-03-30T11:54:32.734Z,2464.00
2023-03-30T11:55:32.764Z,2844.00
2023-03-30T11:56:32.582Z,2460.00
2023-03-30T11:57:32.603Z,2044.00
2023-03-30T11:58:32.547Z,2964.00
2023-03-30T11:59:32.521Z,3556.00
2023-03-30T12:00:32.497Z,3512.00
2023-03-30T12:01:32.506Z,3540.00
2023-03-30T12:02:32.493Z,3272.00
2023-03-30T12:03:32.624Z,2908.00
2023-03-30T12:04:32.528Z,3376.00
2023-03-30T12:05:32.385Z,3376.00
2023-03-30T12:06:32.375Z,3388.00
2023-03-30T12:07:32.366Z,3176.00
2023-03-30T12:08:32.336Z,1568.00
2023-03-30T12:09:32.294Z,2088.00
2023-03-30T12:10:32.346Z,1992.00
2023-03-30T12:11:32.268Z,2352.00
2023-03-30T12:12:32.264Z,3240.00
2023-03-30T12:13:44.546Z,3180.00
2023-03-30T12:14:32.182Z,3152.00
2023-03-30T12:15:32.148Z,3136.00
2023-03-30T12:16:32.166Z,3128.00
2023-03-30T12:17:32.134Z,3116.00
2023-03-30T12:18:32.135Z,3112.00
2023-03-30T12:19:35.652Z,3104.00
2023-03-30T12:20:32.032Z,3092.00
2023-03-30T12:21:32.024Z,3072.00
2023-03-30T12:22:31.994Z,3048.00
2023-03-30T12:23:31.956Z,3024.00
2023-03-30T12:24:31.941Z,2992.00
2023-03-30T12:25:31.902Z,2968.00
2023-03-30T12:26:31.881Z,2948.00
2023-03-30T12:27:31.868Z,2928.00
2023-03-30T12:28:44.194Z,2912.00
2023-03-30T12:29:52.478Z,2900.00
2023-03-30T12:30:31.819Z,2888.00